createdAt,value
2019-03-21T00:01:07.563Z,26.74
2019-03-21T00:03:34.206Z,26.77
2019-03-21T00:06:00.999Z,26.74
2019-03-21T00:08:27.590Z,26.68
2019-03-21T00:10:54.235Z,26.67
2019-03-21T00:13:20.872Z,26.75
2019-03-21T00:15:47.524Z,26.76
2019-03-21T00:18:14.181Z,26.76
2019-03-21T00:20:40.873Z,26.87
2019-03-21T00:23:07.552Z,26.91
2019-03-21T00:25:34.196Z,26.80
2019-03-21T00:28:00.844Z,26.92
2019-03-21T00:30:27.542Z,26.92
2019-03-21T00:32:55.982Z,26.93
2019-03-21T00:35:20.781Z,26.88
2019-03-21T00:37:47.426Z,26.98
2019-03-21T00:40:14.064Z,27.01
2019-03-21T00:42:40.726Z,26.99
2019-03-21T00:45:07.370Z,27.06
2019-03-21T00:47:34.029Z,27.01
2019-03-21T00:50:00.663Z,27.02
2019-03-21T00:52:27.396Z,26.99
2019-03-21T00:54:54.048Z,27.07
2019-03-21T00:57:20.711Z,27.06
2019-03-21T00:59:47.358Z,27.06
2019-03-21T01:02:14.006Z,26.94
2019-03-21T01:04:40.650Z,27.02
2019-03-21T01:07:07.305Z,27.02
2019-03-21T01:09:34.059Z,27.16
2019-03-21T01:12:00.721Z,27.16
2019-03-21T01:14:29.967Z,27.22
2019-03-21T01:16:54.024Z,27.26
2019-03-21T01:19:20.714Z,27.25
2019-03-21T01:21:47.361Z,27.18
2019-03-21T01:24:14.076Z,27.19
2019-03-21T01:26:40.718Z,27.23
2019-03-21T01:29:07.463Z,27.21
2019-03-21T01:31:34.202Z,27.23
2019-03-21T01:34:00.900Z,27.26
2019-03-21T01:36:27.550Z,27.28
2019-03-21T01:38:54.247Z,27.27
2019-03-21T01:41:20.889Z,27.26
2019-03-21T01:43:47.525Z,27.33
2019-03-21T01:46:14.178Z,27.34
2019-03-21T01:48:40.837Z,27.33
2019-03-21T01:51:08.934Z,27.39
2019-03-21T01:53:34.144Z,27.41
2019-03-21T01:56:00.780Z,27.44
2019-03-21T01:58:27.440Z,27.35
2019-03-21T02:00:54.076Z,27.40
2019-03-21T02:03:20.735Z,27.45
2019-03-21T02:05:47.366Z,27.48
2019-03-21T02:08:14.013Z,27.47
2019-03-21T02:10:40.695Z,27.53
2019-03-21T02:13:07.347Z,27.47
2019-03-21T02:15:33.994Z,27.46
2019-03-21T02:18:00.692Z,27.49
2019-03-21T02:20:27.328Z,27.58
2019-03-21T02:22:53.972Z,27.55
2019-03-21T02:25:20.623Z,27.59
2019-03-21T02:27:47.269Z,27.56
2019-03-21T02:30:13.945Z,27.58
2019-03-21T02:32:40.609Z,27.59
2019-03-21T02:35:07.268Z,27.63
2019-03-21T02:37:33.904Z,27.53
2019-03-21T02:40:00.925Z,27.63
2019-03-21T02:42:27.221Z,27.57
2019-03-21T02:45:07.628Z,27.61
2019-03-21T02:47:20.582Z,27.54
2019-03-21T02:49:47.237Z,27.67
2019-03-21T02:52:13.885Z,27.73
2019-03-21T02:54:40.555Z,27.63
2019-03-21T02:57:08.184Z,27.62
2019-03-21T02:59:33.824Z,27.66
2019-03-21T03:02:00.486Z,27.55
2019-03-21T03:04:27.132Z,27.63
2019-03-21T03:06:53.778Z,27.68
2019-03-21T03:09:20.423Z,27.58
2019-03-21T03:11:47.083Z,27.53
2019-03-21T03:14:13.732Z,27.55
2019-03-21T03:16:40.388Z,27.48
2019-03-21T03:19:07.023Z,27.51
2019-03-21T03:21:33.674Z,27.53
2019-03-21T03:24:00.322Z,27.43
2019-03-21T03:26:26.962Z,27.39
2019-03-21T03:28:53.603Z,27.40
2019-03-21T03:31:20.254Z,27.25
2019-03-21T03:33:46.945Z,27.25
2019-03-21T03:36:13.548Z,27.21
2019-03-21T03:38:40.198Z,27.17
2019-03-21T03:41:06.836Z,27.14
2019-03-21T03:43:33.490Z,27.09
2019-03-21T03:46:00.133Z,27.12
2019-03-21T03:48:26.780Z,27.06
2019-03-21T03:50:53.415Z,27.12
2019-03-21T03:53:20.052Z,27.12
2019-03-21T03:55:46.710Z,27.02
2019-03-21T03:58:13.351Z,27.01
2019-03-21T04:00:39.980Z,26.93
2019-03-21T04:03:06.633Z,26.97
2019-03-21T04:05:33.313Z,26.92
2019-03-21T04:07:59.963Z,27.24
2019-03-21T04:10:26.601Z,27.42
2019-03-21T04:12:53.243Z,27.55
2019-03-21T04:15:19.889Z,27.29
2019-03-21T04:17:46.571Z,27.15
2019-03-21T04:20:13.226Z,27.07
2019-03-21T04:22:39.877Z,27.04
2019-03-21T04:25:06.517Z,27.13
2019-03-21T04:27:33.164Z,27.19
2019-03-21T04:29:59.850Z,27.20
2019-03-21T04:32:26.541Z,27.44
2019-03-21T04:34:53.225Z,27.21
2019-03-21T04:37:19.879Z,27.08
2019-03-21T04:39:46.527Z,26.96
2019-03-21T04:42:13.208Z,26.87
2019-03-21T04:44:39.868Z,26.89
2019-03-21T04:47:06.530Z,26.92
2019-03-21T04:49:35.748Z,26.84
2019-03-21T04:52:02.406Z,26.88
2019-03-21T04:54:29.102Z,26.78
2019-03-21T04:56:55.752Z,27.08
2019-03-21T04:59:22.388Z,27.01
2019-03-21T05:01:49.046Z,26.92
2019-03-21T05:04:15.862Z,26.79
2019-03-21T05:06:42.704Z,26.79
2019-03-21T05:09:09.349Z,26.88
2019-03-21T05:11:36.034Z,26.93
2019-03-21T05:14:02.669Z,27.05
2019-03-21T05:16:29.371Z,26.90
2019-03-21T05:18:56.009Z,26.81
2019-03-21T05:21:22.649Z,26.75
2019-03-21T05:23:49.328Z,26.92
2019-03-21T05:26:16.112Z,26.76
2019-03-21T05:28:42.756Z,26.73
2019-03-21T05:31:09.400Z,26.69
2019-03-21T05:33:36.097Z,26.68
2019-03-21T05:36:02.742Z,26.66
2019-03-21T05:38:29.395Z,26.65
2019-03-21T05:40:56.041Z,26.64
2019-03-21T05:43:22.732Z,26.69
2019-03-21T05:45:49.365Z,26.63
2019-03-21T05:48:16.025Z,26.63
2019-03-21T05:50:42.667Z,26.60
2019-03-21T05:53:09.361Z,26.57
2019-03-21T05:55:36.004Z,26.56
2019-03-21T05:58:02.635Z,26.48
2019-03-21T06:00:30.525Z,26.38
2019-03-21T06:02:57.182Z,26.77
2019-03-21T06:05:23.833Z,26.68
2019-03-21T06:07:50.473Z,26.63
2019-03-21T06:10:17.120Z,26.54
2019-03-21T06:12:43.812Z,26.52
2019-03-21T06:15:10.493Z,26.50
2019-03-21T06:17:37.154Z,26.33
2019-03-21T06:20:04.318Z,26.37
2019-03-21T06:22:30.466Z,26.39
2019-03-21T06:24:57.121Z,26.29
2019-03-21T06:27:23.767Z,26.22
2019-03-21T06:29:50.410Z,26.21
2019-03-21T06:32:17.178Z,26.20
2019-03-21T06:34:43.874Z,26.13
2019-03-21T06:37:10.527Z,26.13
2019-03-21T06:39:37.241Z,26.12
2019-03-21T06:42:03.937Z,26.09
2019-03-21T06:44:30.580Z,26.07
2019-03-21T06:46:57.234Z,25.98
2019-03-21T06:49:23.912Z,25.98
2019-03-21T06:51:50.590Z,25.98
2019-03-21T06:54:17.237Z,25.93
2019-03-21T06:56:43.905Z,25.92
2019-03-21T06:59:10.555Z,25.93
2019-03-21T07:01:37.268Z,25.77
2019-03-21T07:04:07.433Z,25.67
2019-03-21T07:06:30.604Z,25.71
2019-03-21T07:08:57.299Z,26.05
2019-03-21T07:11:23.953Z,25.63
2019-03-21T07:13:50.616Z,25.76
2019-03-21T07:16:17.256Z,25.83
2019-03-21T07:18:43.946Z,25.91
2019-03-21T07:21:10.636Z,26.25
2019-03-21T07:23:37.321Z,25.98
2019-03-21T07:26:03.962Z,25.83
2019-03-21T07:28:30.608Z,26.00
2019-03-21T07:30:57.361Z,26.02
2019-03-21T07:33:24.137Z,26.04
2019-03-21T07:35:50.817Z,26.12
2019-03-21T07:38:17.468Z,26.06
2019-03-21T07:40:44.135Z,26.12
2019-03-21T07:43:10.879Z,26.16
2019-03-21T07:45:37.521Z,26.08
2019-03-21T07:48:05.367Z,26.17
2019-03-21T07:50:30.872Z,25.99
2019-03-21T07:52:57.587Z,25.99
2019-03-21T07:55:24.224Z,25.96
2019-03-21T07:57:51.026Z,25.77
2019-03-21T08:00:17.691Z,25.71
2019-03-21T08:02:45.419Z,25.76
2019-03-21T08:05:12.089Z,25.59
2019-03-21T08:07:38.755Z,25.32
2019-03-21T08:10:05.411Z,25.40
2019-03-21T08:12:32.176Z,25.46
2019-03-21T08:14:58.831Z,25.64
2019-03-21T08:17:25.565Z,25.41
2019-03-21T08:19:52.251Z,25.47
2019-03-21T08:22:18.901Z,25.49
2019-03-21T08:24:45.559Z,25.58
2019-03-21T08:27:12.204Z,25.33
2019-03-21T08:29:38.907Z,25.66
2019-03-21T08:32:05.689Z,25.56
2019-03-21T08:34:32.386Z,25.42
2019-03-21T08:36:59.050Z,25.61
2019-03-21T08:39:25.918Z,25.25
2019-03-21T08:41:52.588Z,25.33
2019-03-21T08:44:19.297Z,25.23
2019-03-21T08:46:45.967Z,25.26
2019-03-21T08:49:12.653Z,25.12
2019-03-21T08:51:39.293Z,25.07
2019-03-21T08:54:06.001Z,24.93
2019-03-21T08:56:32.651Z,24.96
2019-03-21T08:58:59.315Z,25.32
2019-03-21T09:01:26.001Z,25.80
2019-03-21T09:03:52.702Z,26.06
2019-03-21T09:06:19.387Z,25.97
2019-03-21T09:08:46.046Z,25.97
2019-03-21T09:11:12.724Z,25.57
2019-03-21T09:13:39.539Z,25.22
2019-03-21T09:16:06.246Z,25.26
2019-03-21T09:18:32.889Z,24.90
2019-03-21T09:20:59.902Z,24.93
2019-03-21T09:23:26.724Z,24.86
2019-03-21T09:25:53.427Z,24.79
2019-03-21T09:28:20.289Z,24.70
2019-03-21T09:30:47.604Z,24.72
2019-03-21T09:33:14.284Z,24.59
2019-03-21T09:35:40.927Z,24.61
2019-03-21T09:38:07.586Z,24.51
2019-03-21T09:40:34.239Z,24.38
2019-03-21T09:43:03.041Z,24.37
2019-03-21T09:45:27.521Z,24.21
2019-03-21T09:47:54.209Z,24.11
2019-03-21T09:50:20.888Z,24.16
2019-03-21T09:52:47.526Z,24.04
2019-03-21T09:55:14.224Z,24.15
2019-03-21T09:57:40.901Z,24.04
2019-03-21T10:00:07.550Z,24.13
2019-03-21T10:02:34.237Z,23.92
2019-03-21T10:05:00.884Z,23.92
2019-03-21T10:07:27.548Z,23.93
2019-03-21T10:09:54.188Z,24.16
2019-03-21T10:12:20.940Z,24.18
2019-03-21T10:14:47.581Z,24.12
2019-03-21T10:17:14.286Z,24.00
2019-03-21T10:19:41.026Z,23.92
2019-03-21T10:22:07.663Z,23.95
2019-03-21T10:24:34.366Z,24.12
2019-03-21T10:27:01.051Z,23.98
2019-03-21T10:29:27.697Z,24.08
2019-03-21T10:31:54.356Z,23.95
2019-03-21T10:34:21.444Z,23.85
2019-03-21T10:36:48.094Z,24.11
2019-03-21T10:39:14.798Z,24.12
2019-03-21T10:41:41.426Z,24.27
2019-03-21T10:44:08.136Z,24.46
2019-03-21T10:46:34.771Z,24.47
2019-03-21T10:49:01.466Z,24.43
2019-03-21T10:51:28.137Z,24.62
2019-03-21T10:53:54.828Z,24.47
2019-03-21T10:56:21.504Z,24.18
2019-03-21T10:58:48.150Z,24.33
2019-03-21T11:01:14.841Z,24.40
2019-03-21T11:03:41.489Z,24.27
2019-03-21T11:06:08.265Z,24.58
2019-03-21T11:08:34.895Z,24.28
2019-03-21T11:11:01.628Z,24.22
2019-03-21T11:13:28.289Z,24.25
2019-03-21T11:15:55.036Z,24.43
2019-03-21T11:18:21.692Z,24.53
2019-03-21T11:20:48.354Z,24.51
2019-03-21T11:23:15.134Z,24.16
2019-03-21T11:25:41.874Z,24.56
2019-03-21T11:28:09.895Z,24.17
2019-03-21T11:30:35.191Z,24.17
2019-03-21T11:33:01.895Z,23.95
2019-03-21T11:35:28.724Z,24.02
2019-03-21T11:37:55.478Z,24.06
2019-03-21T11:40:22.209Z,23.97
2019-03-21T11:42:48.950Z,24.14
2019-03-21T11:45:15.591Z,24.07
2019-03-21T11:47:42.426Z,24.25
2019-03-21T11:50:08.974Z,24.07
2019-03-21T11:52:35.629Z,24.11
2019-03-21T11:55:02.310Z,24.00
2019-03-21T11:57:28.940Z,23.77
2019-03-21T11:59:55.664Z,23.99
2019-03-21T12:02:27.220Z,24.18
2019-03-21T12:04:49.052Z,24.14
2019-03-21T12:07:15.867Z,23.96
2019-03-21T12:09:42.577Z,24.14
2019-03-21T12:12:09.581Z,23.96
2019-03-21T12:14:36.274Z,23.91
2019-03-21T12:17:03.004Z,24.01
2019-03-21T12:19:29.673Z,23.89
2019-03-21T12:21:58.954Z,23.90
2019-03-21T12:24:25.660Z,24.06
2019-03-21T12:26:52.349Z,23.81
2019-03-21T12:29:18.989Z,24.09
2019-03-21T12:31:45.663Z,24.05
2019-03-21T12:34:13.461Z,23.71
2019-03-21T12:36:40.135Z,23.78
2019-03-21T12:39:06.775Z,23.57
2019-03-21T12:41:33.873Z,23.83
2019-03-21T12:44:00.530Z,23.80
2019-03-21T12:46:28.155Z,23.51
2019-03-21T12:48:54.794Z,23.56
2019-03-21T12:51:21.554Z,23.52
2019-03-21T12:53:48.227Z,23.75
2019-03-21T12:56:14.864Z,23.46
2019-03-21T12:58:41.568Z,23.56
2019-03-21T13:01:08.227Z,23.43
2019-03-21T13:03:34.879Z,23.46
2019-03-21T13:06:01.561Z,23.59
2019-03-21T13:08:33.828Z,23.82
2019-03-21T13:10:54.992Z,23.66
2019-03-21T13:13:21.651Z,23.44
2019-03-21T13:15:48.310Z,23.47
2019-03-21T13:18:14.969Z,23.44
2019-03-21T13:20:41.934Z,23.45
2019-03-21T13:23:08.653Z,23.37
2019-03-21T13:25:35.310Z,23.31
2019-03-21T13:28:01.958Z,23.34
2019-03-21T13:30:28.671Z,23.54
2019-03-21T13:32:55.327Z,23.57
2019-03-21T13:35:32.069Z,23.43
2019-03-21T13:37:53.819Z,23.44
2019-03-21T13:40:17.973Z,23.54
2019-03-21T13:42:44.676Z,23.86
2019-03-21T13:45:11.331Z,23.69
2019-03-21T13:47:38.018Z,23.50
2019-03-21T13:50:04.718Z,23.74
2019-03-21T13:52:31.356Z,23.63
2019-03-21T13:54:58.031Z,23.51
2019-03-21T13:57:24.700Z,23.84
2019-03-21T13:59:51.501Z,23.82
2019-03-21T14:02:18.157Z,23.64
2019-03-21T14:04:44.805Z,23.63
2019-03-21T14:07:14.510Z,23.65
2019-03-21T14:09:41.199Z,23.68
2019-03-21T14:12:07.857Z,23.69
2019-03-21T14:14:34.553Z,23.65
2019-03-21T14:17:01.203Z,23.66
2019-03-21T14:19:27.879Z,23.75
2019-03-21T14:21:54.536Z,23.67
2019-03-21T14:24:21.185Z,23.65
2019-03-21T14:26:47.831Z,23.54
2019-03-21T14:29:14.791Z,23.58
2019-03-21T14:31:41.457Z,23.66
2019-03-21T14:34:08.116Z,23.69
2019-03-21T14:36:34.755Z,23.51
2019-03-21T14:39:01.501Z,23.44
2019-03-21T14:41:28.164Z,23.41
2019-03-21T14:43:54.801Z,23.60
2019-03-21T14:46:21.454Z,23.65
2019-03-21T14:48:48.119Z,23.46
2019-03-21T14:51:14.778Z,23.33
2019-03-21T14:53:41.420Z,23.36
2019-03-21T14:56:08.053Z,23.47
2019-03-21T14:58:34.713Z,23.42
2019-03-21T15:01:01.359Z,23.38
2019-03-21T15:03:27.998Z,23.52
2019-03-21T15:05:54.655Z,23.47
2019-03-21T15:08:21.428Z,23.41
2019-03-21T15:10:48.082Z,23.49
2019-03-21T15:13:14.738Z,23.38
2019-03-21T15:15:41.371Z,23.34
2019-03-21T15:18:08.013Z,23.36
2019-03-21T15:20:34.674Z,23.21
2019-03-21T15:23:01.324Z,23.56
2019-03-21T15:25:27.981Z,23.47
2019-03-21T15:27:54.625Z,23.29
2019-03-21T15:30:21.354Z,22.83
2019-03-21T15:32:47.916Z,23.07
2019-03-21T15:35:14.572Z,22.97
2019-03-21T15:37:41.223Z,22.77
2019-03-21T15:40:07.876Z,23.01
2019-03-21T15:42:34.530Z,23.31
2019-03-21T15:45:15.618Z,23.25
2019-03-21T15:47:27.824Z,23.36
2019-03-21T15:49:54.479Z,23.24
2019-03-21T15:52:21.129Z,23.26
2019-03-21T15:54:47.781Z,23.21
2019-03-21T15:57:14.437Z,23.21
2019-03-21T15:59:41.123Z,23.29
2019-03-21T16:02:07.726Z,23.13
2019-03-21T16:04:34.386Z,23.18
2019-03-21T16:07:01.173Z,23.16
2019-03-21T16:09:27.829Z,23.10
2019-03-21T16:11:54.462Z,23.13
2019-03-21T16:14:21.119Z,23.08
2019-03-21T16:16:47.761Z,23.12
2019-03-21T16:19:14.413Z,23.02
2019-03-21T16:21:41.059Z,22.88
2019-03-21T16:24:07.821Z,23.09
2019-03-21T16:26:36.609Z,23.06
2019-03-21T16:29:01.117Z,23.04
2019-03-21T16:31:27.764Z,23.12
2019-03-21T16:33:54.408Z,23.00
2019-03-21T16:36:21.065Z,23.00
2019-03-21T16:38:47.718Z,22.95
2019-03-21T16:41:14.506Z,22.96
2019-03-21T16:43:41.144Z,22.87
2019-03-21T16:46:07.796Z,22.98
2019-03-21T16:48:34.432Z,22.87
2019-03-21T16:51:03.036Z,22.81
2019-03-21T16:53:27.732Z,22.83
2019-03-21T16:55:54.400Z,22.86
2019-03-21T16:58:21.042Z,22.87
2019-03-21T17:00:47.689Z,22.90
2019-03-21T17:03:14.332Z,22.87
2019-03-21T17:05:40.989Z,22.88
2019-03-21T17:08:11.685Z,22.86
2019-03-21T17:10:34.322Z,22.86
2019-03-21T17:13:04.432Z,22.88
2019-03-21T17:15:27.590Z,22.78
2019-03-21T17:17:54.278Z,22.86
2019-03-21T17:20:20.987Z,23.21
2019-03-21T17:22:47.623Z,23.22
2019-03-21T17:25:14.281Z,23.34
2019-03-21T17:27:40.916Z,23.21
2019-03-21T17:30:07.574Z,23.13
2019-03-21T17:32:34.209Z,23.03
2019-03-21T17:35:00.861Z,23.01
2019-03-21T17:37:27.502Z,22.86
2019-03-21T17:39:54.182Z,22.88
2019-03-21T17:42:21.142Z,22.94
2019-03-21T17:44:47.508Z,22.93
2019-03-21T17:47:14.154Z,22.92
2019-03-21T17:49:40.837Z,22.89
2019-03-21T17:52:07.490Z,22.88
2019-03-21T17:54:41.428Z,22.85
2019-03-21T17:57:00.810Z,22.84
2019-03-21T17:59:27.505Z,22.88
2019-03-21T18:01:54.153Z,22.82
2019-03-21T18:04:20.788Z,22.89
2019-03-21T18:06:47.460Z,22.79
2019-03-21T18:09:14.097Z,22.83
2019-03-21T18:11:40.790Z,22.87
2019-03-21T18:14:07.432Z,22.86
2019-03-21T18:16:34.072Z,22.85
2019-03-21T18:19:00.712Z,22.80
2019-03-21T18:21:27.360Z,22.82
2019-03-21T18:23:54.014Z,22.85
2019-03-21T18:26:20.673Z,22.87
2019-03-21T18:28:47.305Z,22.84
2019-03-21T18:31:13.962Z,22.80
2019-03-21T18:33:40.604Z,22.84
2019-03-21T18:36:07.256Z,22.85
2019-03-21T18:38:34.011Z,22.84
2019-03-21T18:41:00.654Z,22.84
2019-03-21T18:43:27.294Z,22.85
2019-03-21T18:45:53.936Z,22.84
2019-03-21T18:48:20.634Z,22.80
2019-03-21T18:50:47.269Z,22.81
2019-03-21T18:53:13.914Z,22.87
2019-03-21T18:55:40.576Z,22.70
2019-03-21T18:58:07.244Z,22.81
2019-03-21T19:00:33.881Z,22.86
2019-03-21T19:03:00.898Z,22.80
2019-03-21T19:05:27.364Z,22.82
2019-03-21T19:07:54.008Z,22.69
2019-03-21T19:10:20.691Z,22.80
2019-03-21T19:12:47.324Z,22.79
2019-03-21T19:15:13.965Z,22.78
2019-03-21T19:17:40.618Z,22.71
2019-03-21T19:20:07.262Z,22.84
2019-03-21T19:22:33.900Z,22.78
2019-03-21T19:25:00.559Z,22.81
2019-03-21T19:27:27.193Z,22.81
2019-03-21T19:29:53.887Z,22.79
2019-03-21T19:32:20.528Z,22.78
2019-03-21T19:34:47.159Z,22.79
2019-03-21T19:37:13.814Z,22.79
2019-03-21T19:39:40.465Z,22.81
2019-03-21T19:42:07.100Z,22.76
2019-03-21T19:44:33.746Z,22.73
2019-03-21T19:47:01.477Z,22.80
2019-03-21T19:49:27.033Z,22.78
2019-03-21T19:51:53.667Z,22.78
2019-03-21T19:54:20.323Z,22.76
2019-03-21T19:56:46.970Z,22.75
2019-03-21T19:59:16.396Z,22.79
2019-03-21T20:01:43.042Z,22.74
2019-03-21T20:04:09.685Z,22.79
2019-03-21T20:06:36.380Z,22.79
2019-03-21T20:09:03.037Z,22.75
2019-03-21T20:11:29.689Z,22.79
2019-03-21T20:13:56.373Z,22.81
2019-03-21T20:16:23.093Z,22.83
2019-03-21T20:18:49.735Z,22.80
2019-03-21T20:21:16.373Z,22.79
2019-03-21T20:23:43.018Z,22.78
2019-03-21T20:26:09.657Z,22.80
2019-03-21T20:28:36.306Z,22.78
2019-03-21T20:31:02.953Z,22.81
2019-03-21T20:33:29.639Z,22.83
2019-03-21T20:35:56.282Z,22.87
2019-03-21T20:38:22.916Z,22.84
2019-03-21T20:40:49.580Z,22.83
2019-03-21T20:43:16.215Z,22.82
2019-03-21T20:45:42.904Z,22.83
2019-03-21T20:48:09.555Z,22.84
2019-03-21T20:50:36.198Z,22.82
2019-03-21T20:53:02.885Z,22.86
2019-03-21T20:55:29.576Z,22.89
2019-03-21T20:57:56.260Z,22.82
2019-03-21T21:00:22.901Z,22.90
2019-03-21T21:02:49.558Z,22.90
2019-03-21T21:05:16.191Z,22.91
2019-03-21T21:07:42.843Z,22.92
2019-03-21T21:10:09.475Z,22.92
2019-03-21T21:12:37.381Z,22.97
2019-03-21T21:15:02.771Z,22.97
2019-03-21T21:17:29.416Z,22.94
2019-03-21T21:19:56.105Z,22.94
2019-03-21T21:22:22.750Z,22.94
2019-03-21T21:24:49.397Z,22.91
2019-03-21T21:27:16.043Z,23.00
2019-03-21T21:29:43.107Z,22.95
2019-03-21T21:32:09.413Z,22.99
2019-03-21T21:34:36.010Z,22.98
2019-03-21T21:37:02.648Z,23.04
2019-03-21T21:39:29.331Z,23.04
2019-03-21T21:41:55.978Z,22.97
2019-03-21T21:44:22.695Z,22.97
2019-03-21T21:46:49.341Z,22.97
2019-03-21T21:49:15.984Z,22.97
2019-03-21T21:51:42.676Z,22.99
2019-03-21T21:54:09.317Z,22.98
2019-03-21T21:56:35.964Z,23.02
2019-03-21T21:59:02.628Z,23.00
2019-03-21T22:01:29.269Z,22.98
2019-03-21T22:04:04.554Z,23.03
2019-03-21T22:06:22.544Z,23.07
2019-03-21T22:08:49.220Z,23.02
2019-03-21T22:11:15.899Z,23.02
2019-03-21T22:13:42.584Z,23.04
2019-03-21T22:16:10.184Z,23.05
2019-03-21T22:18:35.966Z,23.03
2019-03-21T22:21:02.617Z,23.00
2019-03-21T22:23:29.274Z,23.00
2019-03-21T22:25:56.023Z,22.99
2019-03-21T22:28:22.752Z,23.03
2019-03-21T22:30:49.431Z,23.04
2019-03-21T22:33:16.069Z,23.10
2019-03-21T22:35:42.723Z,23.08
2019-03-21T22:38:09.371Z,22.99
2019-03-21T22:40:36.063Z,23.05
2019-03-21T22:43:02.701Z,23.01
2019-03-21T22:45:29.359Z,22.97
2019-03-21T22:47:56.033Z,23.02
2019-03-21T22:50:22.678Z,23.07
2019-03-21T22:52:49.418Z,23.03
2019-03-21T22:55:16.072Z,23.02
2019-03-21T22:57:42.710Z,23.03
2019-03-21T23:00:09.449Z,23.04
2019-03-21T23:02:36.086Z,23.10
2019-03-21T23:05:02.730Z,23.04
2019-03-21T23:07:29.373Z,23.04
2019-03-21T23:09:56.019Z,23.02
2019-03-21T23:12:22.655Z,23.03
2019-03-21T23:14:49.291Z,23.00
2019-03-21T23:17:15.943Z,22.93
2019-03-21T23:19:42.581Z,22.97
2019-03-21T23:22:09.234Z,23.07
2019-03-21T23:24:35.918Z,23.01
2019-03-21T23:27:02.569Z,23.04
2019-03-21T23:29:29.258Z,23.03
2019-03-21T23:31:55.909Z,23.02
2019-03-21T23:34:22.559Z,22.95
2019-03-21T23:36:49.219Z,22.99
2019-03-21T23:39:15.863Z,22.99
2019-03-21T23:41:42.552Z,22.98
2019-03-21T23:44:09.190Z,22.94
2019-03-21T23:46:35.874Z,22.94
2019-03-21T23:49:02.514Z,22.92
2019-03-21T23:51:29.161Z,22.94
2019-03-21T23:53:55.887Z,22.98
2019-03-21T23:56:22.568Z,23.00
2019-03-21T23:58:49.199Z,23.01
